Terminal Aerodrome Forecast
Issued by NWS Green Bay, WI

Home | Current Version | Previous Version | Graphics & Text | Print | Product List | Glossary On
Versions: 1 2 3 4 5 6 7 8 9 10 11 12 13 14 15 16 17 18 19
000
FTUS43 KGRB 260520
TAFGRB
TAF
KGRB 260520Z 2606/2706 25009KT P6SM SCT050 BKN100
     FM260800 26012G18KT P6SM SCT050
     FM261500 26018G28KT P6SM BKN050
     FM270000 26012G18KT P6SM SCT050 BKN100=

USA.gov is the U.S. government's official web portal to all federal, state and local government web resources and services.